Time;durP1;ratioP1;P1;durP2;ratioP2;P2;SDS_P1;SDS_P2;PMS_P1;PMS_P2;Temp;Humidity;BMP_temperature;BMP_pressure;BME280_temperature;BME280_humidity;BME280_pressure;Samples;Min_cycle;Max_cycle;Signal;HPM_P1;HPM_P2
2023/03/01 00:01:31;;;;;;;33.75;17.13;;;-2.80;99.90;;;;;;5015318;28;20024;-75
2023/03/01 00:03:57;;;;;;;32.42;17.40;;;-2.80;99.90;;;;;;5015125;28;20034;-75
2023/03/01 00:06:24;;;;;;;32.13;17.42;;;-2.80;99.90;;;;;;5014350;28;20030;-75
2023/03/01 00:08:49;;;;;;;32.90;18.02;;;-2.80;99.90;;;;;;5016788;28;20030;-74
2023/03/01 00:11:23;;;;;;;33.50;17.60;;;-2.80;99.90;;;;;;5013850;28;20466;-75
2023/03/01 00:13:52;;;;;;;30.30;16.80;;;-2.90;99.90;;;;;;5014923;28;20030;-75
2023/03/01 00:16:24;;;;;;;30.55;16.70;;;-2.90;99.90;;;;;;5013438;28;20483;-75
2023/03/01 00:18:50;;;;;;;28.35;16.10;;;-2.90;99.90;;;;;;5014779;28;20038;-75
2023/03/01 00:21:16;;;;;;;30.65;17.02;;;-2.80;99.90;;;;;;5013832;28;20030;-75
2023/03/01 00:23:42;;;;;;;33.65;17.67;;;-2.80;99.90;;;;;;5024415;28;20026;-75
2023/03/01 00:26:12;;;;;;;32.40;17.58;;;-2.80;99.90;;;;;;5021894;28;20052;-75
2023/03/01 00:28:37;;;;;;;31.88;17.40;;;-2.80;99.90;;;;;;5020835;28;20039;-74
2023/03/01 00:31:09;;;;;;;31.80;15.80;;;-2.90;99.90;;;;;;5033602;28;20096;-74
2023/03/01 00:33:34;;;;;;;31.98;15.77;;;-2.90;99.90;;;;;;5034742;28;20412;-75
2023/03/01 00:36:01;;;;;;;27.13;16.05;;;-2.90;99.90;;;;;;5033550;28;20105;-72
2023/03/01 00:38:26;;;;;;;33.10;17.25;;;-2.90;99.90;;;;;;5033888;28;20410;-75
2023/03/01 00:40:52;;;;;;;31.30;16.92;;;-3.00;99.90;;;;;;5032073;28;20026;-73
2023/03/01 00:43:18;;;;;;;30.83;16.85;;;-3.00;99.90;;;;;;5026565;28;20058;-75
2023/03/01 00:45:45;;;;;;;31.83;16.35;;;-3.00;99.90;;;;;;5022419;28;20033;-75
2023/03/01 00:48:10;;;;;;;30.55;16.25;;;-3.20;99.90;;;;;;5031163;28;20108;-74
2023/03/01 00:50:36;;;;;;;35.28;16.45;;;-3.20;99.90;;;;;;5017184;28;20026;-76
2023/03/01 00:53:02;;;;;;;30.48;16.38;;;-3.20;99.90;;;;;;5013913;28;20026;-72
2023/03/01 00:55:27;;;;;;;32.38;16.00;;;-3.20;99.90;;;;;;5013773;28;20018;-76
2023/03/01 00:57:53;;;;;;;34.15;16.98;;;-3.20;99.90;;;;;;5019103;28;20513;-75
2023/03/01 01:00:19;;;;;;;29.65;16.15;;;-3.10;99.90;;;;;;5019510;28;20029;-75
2023/03/01 01:02:45;;;;;;;29.52;16.77;;;-3.10;99.90;;;;;;5033677;28;20041;-76
2023/03/01 01:05:14;;;;;;;31.48;16.35;;;-3.10;99.90;;;;;;5032712;28;20466;-76
2023/03/01 01:07:40;;;;;;;29.75;16.13;;;-3.20;99.90;;;;;;5033680;28;20518;-76
2023/03/01 01:10:06;;;;;;;30.60;15.23;;;-3.20;99.90;;;;;;5032690;28;20105;-76
2023/03/01 01:12:35;;;;;;;29.13;16.58;;;-3.20;99.90;;;;;;5034241;28;20021;-76
2023/03/01 01:15:01;;;;;;;30.42;15.45;;;-3.30;99.90;;;;;;5023114;28;20046;-72
2023/03/01 01:17:26;;;;;;;32.65;16.20;;;-3.30;99.90;;;;;;5023711;28;20390;-75
2023/03/01 01:19:52;;;;;;;29.88;15.65;;;-3.20;99.90;;;;;;5032977;28;20043;-75
2023/03/01 01:22:17;;;;;;;33.47;17.88;;;-3.40;99.90;;;;;;5031727;28;20083;-75
2023/03/01 01:24:43;;;;;;;31.02;17.60;;;-3.30;99.90;;;;;;5013455;28;20174;-76
2023/03/01 01:27:08;;;;;;;28.30;16.08;;;-3.40;99.90;;;;;;5024180;28;20068;-75
2023/03/01 01:29:34;;;;;;;31.65;16.73;;;-3.40;99.90;;;;;;5033080;28;20092;-75
2023/03/01 01:32:00;;;;;;;30.50;16.88;;;-3.40;99.90;;;;;;5029606;28;20150;-73
2023/03/01 01:34:25;;;;;;;34.22;18.52;;;-3.40;99.90;;;;;;5028568;28;20034;-75
2023/03/01 01:36:55;;;;;;;32.63;16.75;;;-3.40;99.90;;;;;;5022951;28;20078;-75
2023/03/01 01:39:22;;;;;;;32.97;16.90;;;-3.40;99.90;;;;;;5032090;28;20043;-75
2023/03/01 01:41:48;;;;;;;35.22;18.20;;;-3.40;99.90;;;;;;5033213;28;20462;-74
2023/03/01 01:44:39;;;;;;;34.55;18.80;;;-3.40;99.90;;;;;;5026814;28;20037;-74
2023/03/01 01:47:12;;;;;;;37.28;19.75;;;-3.40;99.90;;;;;;5014250;28;20453;-72
2023/03/01 01:49:44;;;;;;;28.55;17.08;;;-3.30;99.90;;;;;;5020509;28;20022;-74
2023/03/01 01:52:16;;;;;;;37.95;17.88;;;-3.20;99.90;;;;;;5020652;28;20063;-74
2023/03/01 01:55:00;;;;;;;38.03;19.08;;;-3.20;99.90;;;;;;5016353;28;20026;-74
2023/03/01 01:57:34;;;;;;;31.77;17.13;;;-3.10;99.90;;;;;;5018743;28;20482;-75
2023/03/01 02:00:04;;;;;;;32.97;17.58;;;-3.00;99.90;;;;;;5021175;28;20470;-71
2023/03/01 02:02:29;;;;;;;;;;;-2.90;99.90;;;;;;5020960;28;20029;-75
2023/03/01 02:05:38;;;;;;;37.45;17.92;;;-2.90;99.90;;;;;;5014941;28;19909;-74
2023/03/01 02:08:04;;;;;;;28.85;16.23;;;-2.80;99.90;;;;;;5004679;28;20055;-74
2023/03/01 02:10:35;;;;;;;32.40;17.60;;;-2.80;99.90;;;;;;5032093;28;20030;-76
2023/03/01 02:13:02;;;;;;;30.08;16.05;;;-2.70;99.90;;;;;;5031315;28;20056;-71
2023/03/01 02:15:32;;;;;;;31.10;17.38;;;-2.60;99.90;;;;;;5031660;28;20095;-74
2023/03/01 02:17:58;;;;;;;30.10;17.08;;;-2.50;99.90;;;;;;5032326;28;20390;-73
2023/03/01 02:20:45;;;;;;;33.22;17.83;;;-2.40;99.90;;;;;;5031536;28;20037;-75
2023/03/01 02:23:11;;;;;;;32.85;17.23;;;-2.40;99.90;;;;;;5008324;28;20124;-72
2023/03/01 02:25:55;;;;;;;33.15;17.10;;;-2.30;99.90;;;;;;5019695;28;20096;-75
2023/03/01 02:28:28;;;;;;;30.80;16.48;;;-2.20;99.90;;;;;;5011787;28;20582;-75
2023/03/01 02:33:39;;;;;;;29.10;16.70;;;-2.10;99.90;;;;;;5013001;28;20478;-73
2023/03/01 02:36:13;;;;;;;32.85;18.40;;;-2.10;99.90;;;;;;5011555;28;20030;-75
2023/03/01 02:38:41;;;;;;;30.50;16.63;;;-2.00;99.90;;;;;;5012681;28;20030;-74
2023/03/01 02:41:08;;;;;;;28.63;16.42;;;-1.90;99.90;;;;;;5011155;28;20025;-74
2023/03/01 02:43:34;;;;;;;33.33;17.10;;;-1.80;99.90;;;;;;5017979;28;20533;-74
2023/03/01 02:46:06;;;;;;;28.17;15.93;;;-1.80;99.90;;;;;;5014704;28;20022;-71
2023/03/01 02:48:45;;;;;;;29.92;16.80;;;-1.80;99.90;;;;;;4994834;28;20403;-75
2023/03/01 02:51:13;;;;;;;30.30;17.30;;;-1.70;99.90;;;;;;5011272;28;20033;-74
2023/03/01 02:53:48;;;;;;;28.48;16.52;;;-1.70;99.90;;;;;;5012608;28;20033;-74
2023/03/01 02:56:15;;;;;;;33.03;18.20;;;-1.70;99.90;;;;;;5010784;28;20029;-74
2023/03/01 02:58:45;;;;;;;35.00;17.00;;;-1.60;99.90;;;;;;5022726;28;20186;-74
2023/03/01 03:01:15;;;;;;;28.73;16.98;;;-1.60;99.90;;;;;;5012069;28;20026;-76
2023/03/01 03:03:41;;;;;;;33.88;17.17;;;-1.60;99.90;;;;;;5012119;28;20061;-74
2023/03/01 03:06:07;;;;;;;28.95;16.00;;;-1.60;99.90;;;;;;5010844;28;20444;-74
2023/03/01 03:08:33;;;;;;;29.83;16.67;;;-1.50;99.90;;;;;;5011605;28;20061;-74
2023/03/01 03:10:58;;;;;;;32.38;16.83;;;-1.50;99.90;;;;;;5011643;28;20030;-74
2023/03/01 03:13:28;;;;;;;32.88;16.83;;;-1.50;99.90;;;;;;5011238;28;20491;-74
2023/03/01 03:15:55;;;;;;;30.10;17.27;;;-1.50;99.90;;;;;;5009907;28;20248;-73
2023/03/01 03:18:25;;;;;;;30.95;17.10;;;-1.40;99.90;;;;;;5018759;28;20156;-74
2023/03/01 03:20:53;;;;;;;31.02;17.70;;;-1.40;99.90;;;;;;5011568;28;20024;-75
2023/03/01 03:23:22;;;;;;;32.22;17.45;;;-1.40;99.90;;;;;;5020751;28;20036;-74
2023/03/01 03:25:49;;;;;;;30.05;16.58;;;-1.40;99.90;;;;;;5014534;28;20026;-74
2023/03/01 03:28:15;;;;;;;32.10;17.33;;;-1.40;99.90;;;;;;5011006;28;20030;-74
2023/03/01 03:30:42;;;;;;;28.55;16.00;;;-1.40;99.90;;;;;;5011341;28;20030;-76
2023/03/01 03:33:11;;;;;;;31.48;17.40;;;-1.40;99.90;;;;;;5011994;28;20068;-75
2023/03/01 03:35:47;;;;;;;34.63;18.50;;;-1.40;99.90;;;;;;5014928;28;20463;-76
2023/03/01 03:38:15;;;;;;;28.77;16.35;;;-1.40;99.90;;;;;;5030728;28;20037;-76
2023/03/01 03:40:47;;;;;;;30.90;17.73;;;-1.30;99.90;;;;;;5030811;28;20033;-76
2023/03/01 03:43:18;;;;;;;31.38;17.38;;;-1.30;99.90;;;;;;5030825;28;20049;-74
2023/03/01 03:45:45;;;;;;;29.75;17.05;;;-1.30;99.90;;;;;;5015203;28;20104;-75
2023/03/01 03:48:11;;;;;;;32.13;17.35;;;-1.30;99.90;;;;;;5010683;28;20124;-73
2023/03/01 03:50:38;;;;;;;30.58;15.73;;;-1.30;99.90;;;;;;5016284;28;20030;-74
2023/03/01 03:53:07;;;;;;;32.80;17.77;;;-1.20;99.90;;;;;;5011191;28;20034;-73
2023/03/01 03:55:33;;;;;;;33.50;17.65;;;-1.20;99.90;;;;;;5011219;28;20030;-74
2023/03/01 03:58:06;;;;;;;30.17;17.15;;;-1.20;99.90;;;;;;5020908;28;20073;-74
2023/03/01 04:00:33;;;;;;;31.98;16.55;;;-1.20;99.90;;;;;;5018729;28;20041;-74
2023/03/01 04:02:59;;;;;;;30.58;17.17;;;-1.20;99.90;;;;;;5031155;28;20304;-74
2023/03/01 04:05:25;;;;;;;30.15;16.33;;;-1.10;99.90;;;;;;5027975;28;20036;-74
2023/03/01 04:08:00;;;;;;;29.83;16.38;;;-1.10;99.90;;;;;;5014467;28;20042;-74
2023/03/01 04:10:27;;;;;;;29.67;16.83;;;-1.10;99.90;;;;;;5010363;28;20033;-73
2023/03/01 04:12:53;;;;;;;29.00;16.48;;;-1.10;99.90;;;;;;5011592;28;20033;-74
2023/03/01 04:15:18;;;;;;;33.58;18.10;;;-1.10;99.90;;;;;;5009231;28;20061;-74
2023/03/01 04:17:46;;;;;;;29.92;18.27;;;-1.10;99.90;;;;;;5011079;28;20553;-76
2023/03/01 04:20:17;;;;;;;29.52;17.98;;;-1.00;99.90;;;;;;5010135;28;20037;-73
2023/03/01 04:22:46;;;;;;;30.13;17.85;;;-1.00;99.90;;;;;;5014699;28;20028;-74
2023/03/01 04:25:13;;;;;;;32.53;17.38;;;-1.00;99.90;;;;;;5012291;28;20167;-74
2023/03/01 04:27:40;;;;;;;30.58;17.63;;;-1.10;99.90;;;;;;5020400;28;20038;-74
2023/03/01 04:30:06;;;;;;;29.80;18.02;;;-1.10;99.90;;;;;;5025968;28;20026;-74
2023/03/01 04:32:32;;;;;;;30.05;17.23;;;-1.00;99.90;;;;;;5031023;28;20387;-75
2023/03/01 04:34:58;;;;;;;32.67;18.10;;;-1.10;99.90;;;;;;5030447;28;20045;-76
2023/03/01 04:37:23;;;;;;;28.85;17.77;;;-1.00;99.90;;;;;;5032446;28;20038;-75
2023/03/01 04:39:49;;;;;;;29.50;16.92;;;-1.00;99.90;;;;;;5024947;28;20029;-77
2023/03/01 04:42:16;;;;;;;33.67;17.58;;;-0.90;99.90;;;;;;5021803;28;20030;-74
2023/03/01 04:44:42;;;;;;;31.83;18.15;;;-0.80;99.90;;;;;;5020825;28;20026;-75
2023/03/01 04:47:08;;;;;;;33.03;17.88;;;-0.70;99.90;;;;;;5021719;28;20033;-74
2023/03/01 04:49:33;;;;;;;29.08;17.67;;;-0.60;99.90;;;;;;5022963;28;20103;-75
2023/03/01 04:52:01;;;;;;;35.30;18.52;;;-0.60;99.90;;;;;;5023665;28;20034;-72
2023/03/01 04:54:31;;;;;;;35.95;18.63;;;-0.60;99.90;;;;;;5022952;28;20042;-75
2023/03/01 04:56:57;;;;;;;32.35;18.27;;;-0.60;99.90;;;;;;5018862;28;20482;-75
2023/03/01 04:59:23;;;;;;;32.13;18.58;;;-0.60;99.90;;;;;;5015718;28;20057;-74
2023/03/01 05:01:49;;;;;;;32.90;18.10;;;-0.60;99.90;;;;;;5013918;28;20513;-74
2023/03/01 05:04:15;;;;;;;34.00;17.75;;;-0.60;99.90;;;;;;5013071;28;20026;-74
2023/03/01 05:06:40;;;;;;;31.20;17.38;;;-0.60;99.90;;;;;;5014343;28;20096;-74
2023/03/01 05:09:06;;;;;;;34.08;18.52;;;-0.40;99.90;;;;;;5012853;28;20038;-74
2023/03/01 05:11:35;;;;;;;30.90;17.60;;;-0.40;99.90;;;;;;5014031;28;20022;-75
2023/03/01 05:14:05;;;;;;;31.90;17.77;;;-0.50;99.90;;;;;;5014275;28;20053;-71
2023/03/01 05:16:31;;;;;;;30.73;18.95;;;-0.50;99.90;;;;;;5014100;28;20037;-75
2023/03/01 05:18:58;;;;;;;35.45;18.67;;;-0.50;99.90;;;;;;5019417;28;20026;-75
2023/03/01 05:21:24;;;;;;;36.38;18.50;;;-0.50;99.90;;;;;;5021628;28;20109;-75
2023/03/01 05:23:50;;;;;;;32.88;18.27;;;-0.50;99.90;;;;;;5016675;28;20048;-75
2023/03/01 05:26:18;;;;;;;37.67;20.23;;;-0.40;99.90;;;;;;5024239;28;20025;-74
2023/03/01 05:28:44;;;;;;;32.55;19.23;;;-0.50;99.90;;;;;;5030235;28;20033;-75
2023/03/01 05:31:10;;;;;;;36.85;19.45;;;-0.40;99.90;;;;;;5027071;28;20040;-73
2023/03/01 05:33:40;;;;;;;32.40;17.83;;;-0.30;99.90;;;;;;5020071;28;20034;-76
2023/03/01 05:36:07;;;;;;;;;;;-0.30;99.90;;;;;;5032835;28;20040;-73
2023/03/01 05:38:32;;;;;;;30.52;16.92;;;-0.30;99.90;;;;;;5030200;28;20361;-73
2023/03/01 05:40:58;;;;;;;37.45;18.52;;;-0.30;99.90;;;;;;5013017;28;20121;-74
2023/03/01 05:43:23;;;;;;;36.30;19.33;;;-0.20;99.90;;;;;;5012659;28;20390;-74
2023/03/01 05:45:49;;;;;;;30.50;17.83;;;-0.30;99.90;;;;;;5016303;28;20111;-74
2023/03/01 05:48:15;;;;;;;31.83;18.50;;;-0.30;99.90;;;;;;5024854;28;20377;-73
2023/03/01 05:50:43;;;;;;;32.65;19.33;;;-0.30;99.90;;;;;;5012991;28;20092;-74
2023/03/01 05:53:14;;;;;;;33.90;18.10;;;-0.10;99.90;;;;;;5012190;28;20034;-73
2023/03/01 05:55:41;;;;;;;35.17;18.70;;;-0.10;99.90;;;;;;5013027;28;20030;-74
2023/03/01 05:58:13;;;;;;;34.75;18.85;;;-0.10;99.90;;;;;;5022870;28;20038;-74
2023/03/01 06:00:40;;;;;;;35.45;18.70;;;-0.20;99.90;;;;;;5012942;28;20040;-74
2023/03/01 06:03:06;;;;;;;32.83;18.38;;;-0.10;99.90;;;;;;5011879;28;20045;-73
2023/03/01 06:05:31;;;;;;;33.70;19.13;;;-0.10;99.90;;;;;;5018205;28;20026;-74
2023/03/01 06:08:01;;;;;;;39.55;18.48;;;-0.20;99.90;;;;;;5027971;28;20076;-74
2023/03/01 06:10:26;;;;;;;32.65;18.45;;;-0.20;99.90;;;;;;5031808;28;20033;-74
2023/03/01 06:12:53;;;;;;;34.13;19.35;;;-0.30;99.90;;;;;;5032431;28;20497;-74
2023/03/01 06:15:18;;;;;;;32.80;19.00;;;-0.30;99.90;;;;;;5030814;28;20053;-75
2023/03/01 06:17:45;;;;;;;35.33;19.33;;;-0.40;99.90;;;;;;5032335;28;20037;-76
2023/03/01 06:20:18;;;;;;;33.65;19.00;;;-0.40;99.90;;;;;;5026858;28;20029;-74
2023/03/01 06:22:46;;;;;;;36.85;20.35;;;-0.40;99.90;;;;;;5014985;28;20040;-76
2023/03/01 06:25:13;;;;;;;30.45;18.85;;;-0.40;99.90;;;;;;5019947;28;20052;-76
2023/03/01 06:27:39;;;;;;;34.25;18.85;;;-0.40;99.90;;;;;;5021638;28;20061;-77
2023/03/01 06:30:06;;;;;;;31.02;18.10;;;-0.40;99.90;;;;;;5035615;28;20025;-74
2023/03/01 06:32:32;;;;;;;34.40;19.40;;;-0.30;99.90;;;;;;5015496;28;20034;-77
2023/03/01 06:34:58;;;;;;;32.75;17.95;;;-0.20;99.90;;;;;;5012186;28;20029;-80
2023/03/01 06:37:24;;;;;;;31.27;18.20;;;-0.20;99.90;;;;;;5035087;28;20509;-76
2023/03/01 06:39:50;;;;;;;38.17;20.33;;;-0.20;99.90;;;;;;5031884;28;20045;-75
2023/03/01 06:42:16;;;;;;;39.00;19.15;;;-0.20;99.90;;;;;;5022067;28;20052;-76
2023/03/01 06:44:42;;;;;;;34.42;19.50;;;-0.10;99.90;;;;;;5018157;28;20030;-77
2023/03/01 06:47:07;;;;;;;33.55;18.02;;;-0.10;99.90;;;;;;5012651;28;20059;-75
2023/03/01 06:49:33;;;;;;;31.42;18.73;;;-0.10;99.90;;;;;;5013529;28;20110;-73
2023/03/01 06:51:58;;;;;;;34.22;18.92;;;0.10;99.90;;;;;;5013141;28;20030;-75
2023/03/01 06:54:24;;;;;;;40.97;20.25;;;0.30;99.90;;;;;;5009620;28;20225;-76
2023/03/01 06:56:50;;;;;;;33.20;19.13;;;0.20;99.90;;;;;;5010802;28;20042;-77
2023/03/01 06:59:17;;;;;;;37.75;20.38;;;0.20;99.90;;;;;;5018817;28;20041;-75
2023/03/01 07:01:43;;;;;;;34.50;19.10;;;0.30;99.90;;;;;;5012064;28;20038;-76
2023/03/01 07:04:09;;;;;;;33.50;18.77;;;0.30;99.90;;;;;;5016944;28;20061;-75
2023/03/01 07:06:35;;;;;;;33.08;18.50;;;0.30;99.90;;;;;;5019481;28;20056;-76
2023/03/01 07:09:00;;;;;;;37.45;19.02;;;0.30;99.90;;;;;;4994724;28;20424;-72
2023/03/01 07:11:26;;;;;;;31.48;18.38;;;0.30;99.90;;;;;;5023623;28;20038;-75
2023/03/01 07:13:52;;;;;;;36.65;20.30;;;0.30;99.90;;;;;;5031602;28;20036;-78
2023/03/01 07:16:17;;;;;;;38.70;20.58;;;0.20;99.90;;;;;;5029453;28;20053;-75
2023/03/01 07:18:43;;;;;;;35.50;19.95;;;0.10;99.90;;;;;;5018584;28;20075;-76
2023/03/01 07:21:12;;;;;;;36.72;19.90;;;0.00;99.90;;;;;;5034905;28;20033;-76
2023/03/01 07:23:38;;;;;;;36.25;19.35;;;-0.10;99.90;;;;;;5017011;28;20087;-75
2023/03/01 07:26:03;;;;;;;37.50;20.42;;;-0.10;99.90;;;;;;5011904;28;20467;-75
2023/03/01 07:28:30;;;;;;;34.13;19.20;;;-0.10;99.90;;;;;;5013231;28;20096;-76
2023/03/01 07:31:01;;;;;;;38.60;20.23;;;-0.10;99.90;;;;;;5006578;28;20050;-72
2023/03/01 07:33:26;;;;;;;35.75;19.50;;;0.00;99.90;;;;;;5009975;28;20022;-72
2023/03/01 07:36:01;;;;;;;35.28;19.73;;;0.00;99.90;;;;;;5023061;28;20371;-76
2023/03/01 07:38:27;;;;;;;34.70;20.00;;;0.00;99.90;;;;;;5024945;28;20038;-74
2023/03/01 07:40:53;;;;;;;34.40;19.52;;;0.00;99.90;;;;;;5011989;28;20022;-75
2023/03/01 07:43:20;;;;;;;37.80;20.08;;;0.10;99.90;;;;;;5017156;28;20055;-75
2023/03/01 07:45:46;;;;;;;40.85;20.52;;;0.10;99.90;;;;;;5024594;28;20378;-74
2023/03/01 07:48:11;;;;;;;34.72;19.27;;;0.00;99.90;;;;;;5012276;28;20037;-75
2023/03/01 07:50:37;;;;;;;32.90;20.13;;;0.10;99.90;;;;;;5015613;28;20438;-75
2023/03/01 07:53:02;;;;;;;41.08;20.63;;;0.10;99.90;;;;;;5019625;28;20026;-72
2023/03/01 07:55:28;;;;;;;34.85;19.35;;;0.20;99.90;;;;;;5010444;28;20481;-73
2023/03/01 07:57:53;;;;;;;41.28;20.58;;;0.30;99.90;;;;;;5020814;28;20037;-75
2023/03/01 08:00:19;;;;;;;37.17;20.10;;;0.30;99.90;;;;;;5013325;28;20026;-73
2023/03/01 08:02:45;;;;;;;43.20;21.50;;;0.30;99.90;;;;;;5024011;28;20456;-75
2023/03/01 08:05:11;;;;;;;41.92;19.83;;;0.40;99.90;;;;;;5018399;28;20017;-75
2023/03/01 08:07:37;;;;;;;38.83;20.75;;;0.40;99.90;;;;;;5024403;28;20040;-75
2023/03/01 08:10:03;;;;;;;41.33;20.35;;;0.40;99.90;;;;;;5020896;28;20687;-75
2023/03/01 08:12:28;;;;;;;38.75;21.80;;;0.40;99.90;;;;;;5020330;28;20028;-75
2023/03/01 08:14:54;;;;;;;38.08;20.50;;;0.50;99.90;;;;;;5023852;28;20053;-75
2023/03/01 08:17:20;;;;;;;38.08;21.15;;;0.60;99.90;;;;;;5018835;28;20072;-75
2023/03/01 08:19:46;;;;;;;39.22;21.58;;;0.70;99.90;;;;;;5017786;28;20079;-74
2023/03/01 08:22:11;;;;;;;34.80;20.35;;;0.70;99.90;;;;;;5019147;28;20067;-75
2023/03/01 08:24:41;;;;;;;36.55;20.45;;;;;;;;;;5018177;28;21254;-75
2023/03/01 08:27:13;;;;;;;34.58;19.15;;;;;;;;;;5014322;28;20033;-74
2023/03/01 08:29:42;;;;;;;36.47;19.83;;;;;;;;;;5020309;28;20041;-75
2023/03/01 08:32:13;;;;;;;36.97;21.47;;;;;;;;;;5022646;28;20017;-75
2023/03/01 08:34:53;;;;;;;36.53;19.88;;;;;;;;;;5020915;28;20260;-76
2023/03/01 08:37:21;;;;;;;37.30;20.23;;;;;;;;;;5004697;28;20044;-76
2023/03/01 08:39:49;;;;;;;38.78;20.92;;;;;;;;;;5018859;28;20097;-76
2023/03/01 08:42:17;;;;;;;38.33;21.70;;;;;;;;;;5013616;28;20486;-76
2023/03/01 08:44:43;;;;;;;37.00;21.42;;;;;;;;;;5023656;28;20054;-76
2023/03/01 08:47:09;;;;;;;36.45;20.85;;;;;;;;;;5024663;28;20151;-75
2023/03/01 08:49:35;;;;;;;35.90;20.58;;;;;;;;;;5003798;28;20033;-76
2023/03/01 08:52:02;;;;;;;46.10;21.50;;;;;;;;;;5030249;28;20021;-73
2023/03/01 08:54:28;;;;;;;39.22;21.70;;;;;;;;;;5018023;28;20072;-77
2023/03/01 08:56:54;;;;;;;34.97;19.75;;;;;;;;;;5015146;28;20022;-76
2023/03/01 08:59:20;;;;;;;37.25;20.10;;;;;;;;;;5018670;28;20030;-75
2023/03/01 09:01:46;;;;;;;34.50;20.13;;;;;;;;;;5017050;28;20022;-76
2023/03/01 09:04:12;;;;;;;36.53;20.23;;;;;;;;;;5026977;28;20018;-75
2023/03/01 09:06:39;;;;;;;37.03;20.73;;;;;;;;;;5014397;28;20030;-75
2023/03/01 09:09:05;;;;;;;39.70;21.27;;;;;;;;;;5024457;28;20045;-71
2023/03/01 09:11:31;;;;;;;36.42;20.30;;;;;;;;;;5014247;28;20116;-74
2023/03/01 09:13:57;;;;;;;36.78;20.10;;;;;;;;;;5029795;28;20120;-75
2023/03/01 09:16:23;;;;;;;40.05;21.63;;;;;;;;;;5011979;28;20715;-76
2023/03/01 09:18:51;;;;;;;35.97;21.55;;;;;;;;;;5022509;28;20368;-76
2023/03/01 09:21:17;;;;;;;36.13;19.80;;;;;;;;;;5023546;28;20026;-76
2023/03/01 09:23:44;;;;;;;38.00;20.35;;;;;;;;;;5020974;28;20116;-74
2023/03/01 09:26:12;;;;;;;35.15;20.50;;;;;;;;;;5016573;28;20074;-74
2023/03/01 09:28:38;;;;;;;35.95;20.23;;;;;;;;;;5016167;28;20336;-75
2023/03/01 09:31:05;;;;;;;39.45;20.92;;;;;;;;;;5020416;28;20056;-73
2023/03/01 09:33:32;;;;;;;40.50;22.05;;;;;;;;;;5018631;28;20032;-76
2023/03/01 09:36:02;;;;;;;37.70;20.52;;;;;;;;;;5014060;28;20033;-74
2023/03/01 09:38:28;;;;;;;37.38;20.92;;;;;;;;;;5026160;28;20038;-75
2023/03/01 09:40:54;;;;;;;40.92;21.40;;;;;;;;;;5015800;28;20463;-76
2023/03/01 09:43:26;;;;;;;33.88;20.50;;;;;;;;;;5018486;28;20026;-76
2023/03/01 09:45:54;;;;;;;34.63;20.42;;;;;;;;;;5016563;28;20026;-75
2023/03/01 09:48:23;;;;;;;32.55;20.23;;;;;;;;;;5014326;28;20033;-76
2023/03/01 09:50:49;;;;;;;35.75;19.15;;;;;;;;;;5013406;28;20077;-76
2023/03/01 09:53:15;;;;;;;34.40;20.17;;;;;;;;;;5001746;28;20045;-75
2023/03/01 09:56:02;;;;;;;34.00;18.75;;;;;;;;;;5026766;28;20025;-76
2023/03/01 09:58:46;;;;;;;36.75;17.15;;;;;;;;;;5015949;28;20038;-76
2023/03/01 10:01:31;;;;;;;33.28;18.60;;;;;;;;;;5018881;28;20029;-75
2023/03/01 10:04:12;;;;;;;32.42;18.67;;;;;;;;;;5013233;28;20491;-76
2023/03/01 10:06:40;;;;;;;40.17;20.15;;;;;;;;;;5020648;28;20049;-77
2023/03/01 10:09:10;;;;;;;39.90;18.88;;;;;;;;;;5024750;28;20026;-72
2023/03/01 10:11:37;;;;;;;31.13;19.73;;;;;;;;;;5013067;28;20093;-76
2023/03/01 10:14:06;;;;;;;36.05;19.75;;;;;;;;;;5027867;28;20030;-72
2023/03/01 10:16:41;;;;;;;32.63;19.92;;;;;;;;;;5013283;28;20026;-76
2023/03/01 10:19:11;;;;;;;34.50;19.70;;;;;;;;;;5022546;28;20503;-75
2023/03/01 10:21:41;;;;;;;33.10;19.35;;;;;;;;;;5029349;28;20033;-76
2023/03/01 10:24:18;;;;;;;30.42;19.52;;;4.00;99.90;;;;;;5015623;28;20517;-75
2023/03/01 10:27:02;;;;;;;35.17;19.35;;;4.00;99.90;;;;;;5022762;28;20466;-75
2023/03/01 10:29:37;;;;;;;34.40;18.98;;;4.10;99.90;;;;;;5016989;28;20033;-76
2023/03/01 10:32:06;;;;;;;31.25;18.67;;;4.20;99.90;;;;;;5026465;28;20080;-71
2023/03/01 10:34:34;;;;;;;32.40;18.33;;;4.20;99.90;;;;;;5012558;28;20022;-75
2023/03/01 10:37:15;;;;;;;30.58;19.10;;;4.20;99.90;;;;;;5025570;28;20355;-71
2023/03/01 10:39:59;;;;;;;31.90;19.20;;;4.20;99.90;;;;;;5015232;28;20030;-75
2023/03/01 10:42:29;;;;;;;29.80;17.48;;;4.30;99.90;;;;;;5011670;28;20029;-75
2023/03/01 10:44:55;;;;;;;;;;;4.40;99.90;;;;;;5022048;28;20100;-75
2023/03/01 10:47:24;;;;;;;31.42;18.15;;;4.50;99.90;;;;;;5017697;28;20388;-76
2023/03/01 10:49:55;;;;;;;38.35;18.08;;;;;;;;;;5027956;28;20035;-76
2023/03/01 10:52:27;;;;;;;31.92;18.15;;;4.60;99.90;;;;;;5012905;28;20479;-76
2023/03/01 10:54:59;;;;;;;35.97;18.05;;;4.70;99.90;;;;;;5029605;28;20495;-76
2023/03/01 10:57:43;;;;;;;32.78;18.13;;;4.80;99.90;;;;;;5022674;28;20041;-76
2023/03/01 11:00:18;;;;;;;162.98;23.73;;;4.80;99.90;;;;;;5016841;28;20025;-76
2023/03/01 11:02:48;;;;;;;33.58;18.38;;;4.90;99.90;;;;;;5025143;28;20485;-76
2023/03/01 11:05:14;;;;;;;28.98;16.85;;;5.00;99.90;;;;;;5020163;28;20041;-76
2023/03/01 11:07:49;;;;;;;28.02;16.75;;;5.10;99.90;;;;;;5028415;28;20105;-76
2023/03/01 11:10:19;;;;;;;30.48;17.95;;;;;;;;;;4999250;28;20087;-75
2023/03/01 11:12:44;;;;;;;;;;;5.30;99.90;;;;;;5021633;28;20036;-76
2023/03/01 11:15:22;;;;;;;30.02;18.38;;;5.40;99.90;;;;;;5018223;28;19917;-76
2023/03/01 11:17:48;;;;;;;28.77;17.58;;;5.40;99.90;;;;;;5022105;28;20054;-76
2023/03/01 11:20:13;;;;;;;31.88;17.85;;;5.50;99.90;;;;;;5012919;28;20025;-75
2023/03/01 11:22:53;;;;;;;30.17;18.08;;;5.60;99.90;;;;;;5023321;28;20038;-70
2023/03/01 11:25:24;;;;;;;24.48;16.83;;;5.70;99.60;;;;;;4992533;28;20378;-76
2023/03/01 11:27:51;;;;;;;28.80;17.73;;;5.90;99.50;;;;;;5019845;28;20094;-75
2023/03/01 11:30:30;;;;;;;27.52;17.38;;;6.00;99.00;;;;;;5027530;28;20025;-75
2023/03/01 11:33:08;;;;;;;26.15;17.25;;;6.10;99.00;;;;;;5019902;28;20033;-76
2023/03/01 11:35:37;;;;;;;28.55;17.02;;;6.20;98.10;;;;;;5019685;28;20021;-74
2023/03/01 11:38:18;;;;;;;28.13;17.55;;;6.20;98.10;;;;;;5013395;28;20037;-71
2023/03/01 11:40:53;;;;;;;32.05;19.17;;;6.10;98.10;;;;;;5022080;28;20114;-77
2023/03/01 11:43:50;;;;;;;27.42;17.05;;;6.20;98.20;;;;;;5017654;28;20486;-77
2023/03/01 11:46:31;;;;;;;29.45;18.10;;;6.40;97.60;;;;;;5022445;28;20360;-76
2023/03/01 11:49:08;;;;;;;;;;;6.30;97.50;;;;;;5020673;28;20033;-75
2023/03/01 11:51:34;;;;;;;28.45;16.85;;;6.30;98.40;;;;;;5021775;28;20423;-77
2023/03/01 11:54:25;;;;;;;30.20;18.08;;;6.20;98.10;;;;;;5020956;28;20018;-72
2023/03/01 11:56:57;;;;;;;29.92;18.23;;;6.20;97.80;;;;;;5025810;28;20029;-75
2023/03/01 11:59:35;;;;;;;27.20;17.33;;;6.40;98.90;;;;;;5019228;28;20457;-76
2023/03/01 12:02:14;;;;;;;28.52;17.77;;;6.50;97.80;;;;;;5016168;28;20025;-72
2023/03/01 12:04:58;;;;;;;27.27;16.27;;;6.50;97.50;;;;;;5023783;28;20445;-74
2023/03/01 12:07:42;;;;;;;28.92;17.02;;;6.70;97.20;;;;;;5016826;28;20041;-75
2023/03/01 12:10:21;;;;;;;31.83;18.27;;;6.80;97.00;;;;;;5018622;28;20108;-77
2023/03/01 12:12:56;;;;;;;27.37;16.90;;;7.10;96.60;;;;;;5024938;28;20045;-76
2023/03/01 12:15:33;;;;;;;23.90;15.88;;;7.20;96.00;;;;;;5018199;28;20052;-75
2023/03/01 12:18:12;;;;;;;26.50;16.90;;;7.30;96.50;;;;;;5018211;28;20444;-75
2023/03/01 12:21:05;;;;;;;25.00;16.40;;;7.80;99.90;;;;;;5012738;28;20053;-77
2023/03/01 12:24:06;;;;;;;23.13;16.10;;;8.10;99.90;;;;;;5024983;28;20120;-76
2023/03/01 12:26:44;;;;;;;27.38;16.67;;;8.40;93.80;;;;;;4934542;29;20480;-77
2023/03/01 12:29:12;;;;;;;26.98;16.63;;;8.70;93.00;;;;;;5011393;28;20111;-75
2023/03/01 12:32:19;;;;;;;22.75;15.20;;;8.90;92.00;;;;;;5019619;28;20079;-76
2023/03/01 12:35:15;;;;;;;23.05;15.27;;;9.00;91.80;;;;;;4991686;28;20034;-75
2023/03/01 12:38:25;;;;;;;24.60;15.88;;;9.30;90.60;;;;;;5026710;28;20467;-78
2023/03/01 12:41:19;;;;;;;26.90;16.20;;;9.20;90.80;;;;;;5015145;28;20030;-77
2023/03/01 12:43:58;;;;;;;22.67;16.10;;;9.10;90.40;;;;;;5030959;28;20037;-76
2023/03/01 12:46:44;;;;;;;22.25;16.00;;;9.30;90.30;;;;;;5025262;28;20057;-77
2023/03/01 12:49:13;;;;;;;22.13;14.70;;;;;;;;;;5020442;28;20530;-74
2023/03/01 12:51:40;;;;;;;22.83;15.38;;;;;;;;;;5030225;28;20025;-76
2023/03/01 12:54:16;;;;;;;22.60;15.18;;;;;;;;;;5021685;28;20014;-75
2023/03/01 12:56:44;;;;;;;23.60;15.27;;;;;;;;;;5022476;28;20036;-75
2023/03/01 12:59:27;;;;;;;25.63;14.25;;;;;;;;;;5021935;28;20052;-76
2023/03/01 13:02:10;;;;;;;21.38;15.02;;;;;;;;;;5022996;28;20088;-77
2023/03/01 13:04:45;;;;;;;22.42;15.35;;;;;;;;;;5022214;28;20526;-76
2023/03/01 13:07:20;;;;;;;22.60;15.60;;;;;;;;;;5019847;28;20033;-77